Time;durP1;ratioP1;P1;durP2;ratioP2;P2;SDS_P1;SDS_P2;PMS_P1;PMS_P2;Temp;Humidity;BMP_temperature;BMP_pressure;BME280_temperature;BME280_humidity;BME280_pressure;Samples;Min_cycle;Max_cycle;Signal;HPM_P1;HPM_P2
2023/04/17 00:00:08;;;;;;;1.77;1.45;;;;;;;12.78;49.30;100583.44;4918068;29;20071;-77
2023/04/17 00:02:54;;;;;;;3.83;1.85;;;;;;;12.86;48.69;100582.56;4922798;29;20055;-77
2023/04/17 00:05:38;;;;;;;2.30;1.55;;;;;;;12.79;48.78;100581.50;4916927;29;20059;-77
2023/04/17 00:08:23;;;;;;;;;;;;;;;12.74;48.88;100570.81;4918356;29;20074;-76
2023/04/17 00:11:07;;;;;;;2.00;1.40;;;;;;;12.63;49.01;100581.31;4918367;29;19922;-77
2023/04/17 00:13:52;;;;;;;2.42;1.20;;;;;;;12.52;49.57;100582.81;4917634;29;20070;-76
2023/04/17 00:16:37;;;;;;;2.53;1.30;;;;;;;12.53;49.57;100580.91;4916154;29;20051;-75
2023/04/17 00:19:22;;;;;;;;;;;;;;;12.58;49.33;100581.50;4918569;29;20051;-76
2023/04/17 00:22:06;;;;;;;1.92;1.40;;;;;;;12.69;48.76;100582.72;4917054;29;20386;-76
2023/04/17 00:24:51;;;;;;;5.25;1.83;;;;;;;12.57;49.28;100582.63;4916789;29;20051;-75
2023/04/17 00:27:36;;;;;;;6.22;2.10;;;;;;;12.32;49.45;100576.22;4917177;29;20055;-75
2023/04/17 00:30:20;;;;;;;4.32;2.65;;;;;;;12.44;49.58;100579.00;4920196;29;20047;-77
2023/04/17 00:33:05;;;;;;;4.40;1.52;;;;;;;12.30;49.28;100577.66;4916201;29;20079;-76
2023/04/17 00:35:50;;;;;;;2.55;1.20;;;;;;;12.34;49.76;100567.72;4917473;29;20051;-76
2023/04/17 00:38:35;;;;;;;4.68;1.88;;;;;;;12.33;49.83;100571.56;4918087;29;20051;-76
2023/04/17 00:41:19;;;;;;;6.05;1.83;;;;;;;12.11;50.68;100577.28;4916251;29;20055;-76
2023/04/17 00:44:04;;;;;;;4.60;1.67;;;;;;;12.27;49.86;100570.94;4919794;29;20427;-76
2023/04/17 00:46:50;;;;;;;6.97;2.30;;;;;;;12.26;50.02;100568.53;4918441;29;20051;-76
2023/04/17 00:49:35;;;;;;;3.63;2.22;;;;;;;12.21;49.74;100558.63;4916236;29;20055;-76
2023/04/17 00:52:28;;;;;;;4.05;1.38;;;;;;;12.09;50.30;100557.75;4906154;29;20078;-75
2023/04/17 00:55:14;;;;;;;3.55;1.73;;;;;;;12.16;50.61;100555.28;4916668;29;20047;-76
2023/04/17 00:57:59;;;;;;;4.80;1.95;;;;;;;12.23;50.03;100559.13;4897456;29;20051;-76
2023/04/17 01:00:43;;;;;;;;;;;;;;;12.16;50.62;100549.84;4920493;29;20059;-76
2023/04/17 01:03:30;;;;;;;3.25;2.00;;;;;;;12.10;50.33;100551.16;4920179;29;19915;-76
2023/04/17 01:06:15;;;;;;;1.80;1.30;;;;;;;12.09;50.21;100546.84;4924531;29;20051;-76
2023/04/17 01:09:01;;;;;;;4.30;1.52;;;;;;;11.83;51.30;100549.72;4919721;29;20063;-75
2023/04/17 01:11:46;;;;;;;2.95;1.40;;;;;;;11.96;50.63;100554.94;4906670;29;20062;-75
2023/04/17 01:14:31;;;;;;;;;;;;;;;12.07;50.46;100557.28;4923228;29;20058;-75
2023/04/17 01:17:18;;;;;;;2.15;1.50;;;;;;;12.17;50.25;100551.44;4923039;29;20295;-76
2023/04/17 01:20:09;;;;;;;1.45;1.20;;;;;;;12.13;50.67;100556.78;4917426;29;20047;-76
2023/04/17 01:22:55;;;;;;;8.05;1.70;;;;;;;11.94;51.02;100559.09;4917163;29;20054;-75
2023/04/17 01:25:40;;;;;;;1.40;1.13;;;;;;;12.00;51.34;100555.06;4917138;29;20546;-76
2023/04/17 01:28:25;;;;;;;4.68;1.20;;;;;;;11.86;50.82;100557.22;4923170;29;20782;-75
2023/04/17 01:31:14;;;;;;;1.95;1.17;;;;;;;11.87;51.14;100548.72;4902163;29;20068;-75
2023/04/17 01:34:00;;;;;;;4.57;1.40;;;;;;;11.98;50.73;100547.22;4918718;29;20413;-75
2023/04/17 01:36:45;;;;;;;1.77;1.08;;;;;;;11.71;51.30;100544.91;4916483;29;20051;-76
2023/04/17 01:39:30;;;;;;;3.20;1.08;;;;;;;11.87;50.89;100548.72;4917806;29;20514;-75
2023/04/17 01:42:15;;;;;;;3.65;1.40;;;;;;;11.85;50.50;100547.44;4919146;29;20051;-75
2023/04/17 01:44:59;;;;;;;2.47;1.40;;;;;;;11.83;50.50;100546.97;4918018;29;20055;-75
2023/04/17 01:47:44;;;;;;;5.20;1.15;;;;;;;11.83;50.55;100555.16;4916291;29;20535;-75
2023/04/17 01:50:29;;;;;;;1.98;1.30;;;;;;;11.65;51.12;100548.13;4927394;29;20047;-76
2023/04/17 01:53:14;;;;;;;1.63;1.10;;;;;;;11.67;51.17;100554.88;4916441;29;20110;-76
2023/04/17 01:56:01;;;;;;;3.22;1.50;;;;;;;11.76;50.97;100552.94;4901202;29;20534;-76
2023/04/17 01:58:47;;;;;;;13.98;1.80;;;;;;;11.89;50.68;100551.91;4919668;29;20051;-76
2023/04/17 02:01:32;;;;;;;1.35;1.13;;;;;;;11.73;50.87;100550.88;4917599;29;20051;-76
2023/04/17 02:04:17;;;;;;;2.30;1.10;;;;;;;11.57;51.08;100556.03;4929337;29;20519;-76
2023/04/17 02:07:02;;;;;;;1.38;0.93;;;;;;;11.36;52.76;100544.22;4915578;29;20058;-75
2023/04/17 02:09:46;;;;;;;6.88;1.50;;;;;;;11.47;51.61;100541.97;4915801;29;20063;-76
2023/04/17 02:12:30;;;;;;;3.38;1.52;;;;;;;11.69;51.63;100544.44;4918563;29;20128;-76
2023/04/17 02:15:15;;;;;;;4.10;1.38;;;;;;;11.56;51.64;100548.16;4919293;29;20518;-76
2023/04/17 02:18:00;;;;;;;1.08;0.93;;;;;;;11.68;51.53;100547.50;4912431;29;20068;-76
2023/04/17 02:20:45;;;;;;;4.35;1.13;;;;;;;11.64;51.59;100544.59;4895795;29;20449;-76
2023/04/17 02:23:29;;;;;;;2.47;0.93;;;;;;;11.58;52.35;100543.97;4912689;29;20051;-76
2023/04/17 02:26:14;;;;;;;1.55;1.35;;;;;;;11.53;51.94;100544.16;4914077;29;20058;-76
2023/04/17 02:29:02;;;;;;;2.55;1.35;;;;;;;11.50;52.24;100554.91;4912854;29;20060;-76
2023/04/17 02:31:47;;;;;;;2.97;2.47;;;;;;;11.63;51.69;100547.69;4915023;29;20055;-75
2023/04/17 02:34:32;;;;;;;3.50;2.47;;;;;;;11.72;51.11;100545.72;4898599;29;20044;-75
2023/04/17 02:37:17;;;;;;;1.63;1.30;;;;;;;11.81;51.05;100547.31;4914180;29;20055;-76
2023/04/17 02:40:05;;;;;;;1.75;1.27;;;;;;;11.70;51.71;100543.31;4912831;29;20047;-76
2023/04/17 02:42:50;;;;;;;1.67;1.27;;;;;;;11.51;51.90;100548.34;4916773;29;20071;-76
2023/04/17 02:45:35;;;;;;;2.00;1.40;;;;;;;11.66;51.38;100547.81;4917221;29;20047;-76
2023/04/17 02:48:20;;;;;;;1.13;1.02;;;;;;;11.74;51.37;100549.72;4909169;29;20048;-76
2023/04/17 02:51:05;;;;;;;1.48;1.30;;;;;;;11.65;51.47;100546.22;4916188;29;20055;-75
2023/04/17 02:53:50;;;;;;;4.15;2.00;;;;;;;11.56;51.77;100548.16;4915822;29;20059;-75
2023/04/17 02:56:35;;;;;;;3.00;2.10;;;;;;;11.59;51.88;100539.34;4927598;29;20055;-75
2023/04/17 02:59:19;;;;;;;5.30;1.45;;;;;;;11.45;51.54;100538.75;4910823;29;20055;-75
2023/04/17 03:02:04;;;;;;;2.42;1.92;;;;;;;11.21;52.64;100543.94;4916501;29;20051;-75
2023/04/17 03:04:50;;;;;;;4.38;1.70;;;;;;;11.43;51.86;100535.53;4916819;29;20168;-75
2023/04/17 03:07:36;;;;;;;5.88;2.38;;;;;;;11.45;52.37;100545.00;4922172;29;20064;-76
2023/04/17 03:10:21;;;;;;;4.32;1.77;;;;;;;11.40;52.09;100542.44;4919306;29;20117;-75
2023/04/17 03:13:06;;;;;;;3.30;1.70;;;;;;;11.24;52.90;100551.44;4919396;29;20051;-75
2023/04/17 03:15:51;;;;;;;2.83;1.40;;;;;;;11.39;52.56;100553.66;4928365;29;20055;-76
2023/04/17 03:18:39;;;;;;;1.98;1.70;;;;;;;11.47;52.36;100539.25;4920708;29;20043;-76
2023/04/17 03:21:25;;;;;;;2.53;2.17;;;;;;;10.87;54.18;100550.25;4916789;29;20051;-76
2023/04/17 03:24:11;;;;;;;3.75;2.00;;;;;;;11.08;53.75;100548.44;4930880;29;20141;-76
2023/04/17 03:26:57;;;;;;;3.20;1.92;;;;;;;11.05;53.89;100544.44;4903020;29;20063;-76
2023/04/17 03:29:46;;;;;;;3.95;2.70;;;;;;;11.06;53.64;100543.34;4918029;29;20059;-76
2023/04/17 03:32:32;;;;;;;5.57;2.65;;;;;;;10.94;53.86;100551.34;4918025;29;20055;-75
2023/04/17 03:35:17;;;;;;;2.33;1.65;;;;;;;10.98;54.30;100548.75;4919859;29;20497;-75
2023/04/17 03:38:02;;;;;;;;;;;;;;;11.00;54.38;100544.63;4917165;29;20416;-75
2023/04/17 03:40:46;;;;;;;3.67;2.75;;;;;;;11.01;54.63;100543.50;4909689;29;19919;-75
2023/04/17 03:43:32;;;;;;;10.85;2.75;;;;;;;11.14;53.69;100558.84;4917721;29;20055;-75
2023/04/17 03:46:17;;;;;;;4.18;2.17;;;;;;;11.08;54.18;100551.97;4918754;29;20428;-75
2023/04/17 03:49:02;;;;;;;3.47;2.17;;;;;;;10.98;53.77;100548.75;4921023;29;20064;-75
2023/04/17 03:51:47;;;;;;;;;;;;;;;10.93;54.65;100552.44;4919028;29;20055;-75
2023/04/17 03:54:35;;;;;;;3.70;2.45;;;;;;;11.03;54.70;100560.28;4922844;29;19919;-75
2023/04/17 03:57:22;;;;;;;3.65;2.42;;;;;;;11.04;54.53;100547.47;4931648;29;20134;-75
2023/04/17 04:00:09;;;;;;;3.80;2.03;;;;;;;11.15;54.73;100548.75;4924082;29;20436;-75
2023/04/17 04:03:03;;;;;;;4.25;2.97;;;;;;;11.21;54.47;100542.03;4911722;29;20077;-75
2023/04/17 04:05:55;;;;;;;5.18;2.53;;;;;;;11.21;54.63;100542.03;4909181;29;20051;-75
2023/04/17 04:08:40;;;;;;;4.28;2.17;;;;;;;11.22;54.38;100548.28;4919178;29;20091;-75
2023/04/17 04:11:25;;;;;;;10.00;1.63;;;;;;;11.23;54.79;100545.22;4916559;29;20055;-75
2023/04/17 04:14:10;;;;;;;3.13;2.40;;;;;;;11.33;54.36;100544.06;4911959;29;20044;-75
2023/04/17 04:16:56;;;;;;;7.05;3.03;;;;;;;11.18;55.28;100552.72;4919589;29;20059;-76
2023/04/17 04:19:43;;;;;;;3.45;2.55;;;;;;;11.24;55.43;100548.72;4925072;29;20043;-75
2023/04/17 04:22:28;;;;;;;2.55;1.73;;;;;;;11.15;55.59;100551.47;4917350;29;20063;-76
2023/04/17 04:25:14;;;;;;;3.40;2.45;;;;;;;11.04;56.00;100551.00;4907407;29;20055;-75
2023/04/17 04:28:26;;;;;;;3.67;2.00;;;;;;;11.01;56.14;100553.59;4921556;29;20055;-76
2023/04/17 04:31:17;;;;;;;6.32;2.28;;;;;;;11.12;56.06;100552.91;4901450;29;20044;-76
2023/04/17 04:34:02;;;;;;;5.63;2.70;;;;;;;11.12;55.75;100561.06;4911899;29;20058;-75
2023/04/17 04:36:50;;;;;;;5.30;2.20;;;;;;;11.05;56.01;100559.97;4920697;29;20051;-76
2023/04/17 04:40:08;;;;;;;3.88;2.55;;;;;;;11.15;56.50;100556.91;4913991;29;20080;-76
2023/04/17 04:42:54;;;;;;;6.22;2.67;;;;;;;11.19;56.28;100549.69;4914822;29;20523;-75
2023/04/17 04:45:42;;;;;;;3.92;2.25;;;;;;;11.16;56.47;100553.06;4917414;29;20055;-76
2023/04/17 04:48:27;;;;;;;2.78;1.83;;;;;;;11.08;56.50;100551.16;4908390;29;20535;-75
2023/04/17 04:51:12;;;;;;;4.70;2.53;;;;;;;11.02;57.13;100555.97;4915651;29;20058;-75
2023/04/17 04:53:58;;;;;;;4.38;2.95;;;;;;;11.13;56.65;100559.94;4933422;29;20539;-75
2023/04/17 04:56:43;;;;;;;8.52;2.65;;;;;;;11.26;56.22;100566.34;4918617;29;20055;-74
2023/04/17 04:59:29;;;;;;;3.40;2.70;;;;;;;11.22;56.88;100557.25;4913757;29;20075;-74
2023/04/17 05:02:30;;;;;;;6.60;2.85;;;;;;;11.36;56.92;100560.56;4903013;29;20047;-75
2023/04/17 05:05:15;;;;;;;8.43;2.63;;;;;;;11.45;57.01;100557.81;4919083;29;20546;-75
2023/04/17 05:08:01;;;;;;;7.28;2.20;;;;;;;11.42;57.13;100553.03;4912311;29;20846;-75
2023/04/17 05:10:50;;;;;;;5.05;2.65;;;;;;;11.44;57.23;100548.03;4919312;29;20055;-76
2023/04/17 05:13:36;;;;;;;9.57;2.35;;;;;;;11.44;57.10;100548.84;4944326;23;20537;-77
2023/04/17 05:16:20;;;;;;;6.75;2.05;;;;;;;11.54;57.20;100566.75;4928154;29;20055;-78
2023/04/17 05:19:05;;;;;;;3.33;1.90;;;;;;;11.58;57.91;100578.59;4916171;29;20043;-77
2023/04/17 05:22:23;;;;;;;5.10;2.58;;;;;;;11.62;58.33;100579.56;4916941;29;20056;-78
2023/04/17 05:25:21;;;;;;;6.47;2.35;;;;;;;11.57;59.43;100583.25;4918229;29;20060;-77
2023/04/17 05:28:06;;;;;;;6.93;2.80;;;;;;;11.44;60.85;100586.16;4909075;29;20063;-77
2023/04/17 05:30:51;;;;;;;10.45;3.55;;;;;;;11.97;59.46;100586.50;4903673;29;20434;-79
2023/04/17 05:33:44;;;;;;;6.47;2.88;;;;;;;12.21;58.68;100594.06;4904968;29;20051;-79
2023/04/17 05:36:31;;;;;;;;;;;;;;;12.29;58.77;100593.22;4900841;29;20062;-77
2023/04/17 05:39:18;;;;;;;;;;;;;;;12.37;58.57;100591.59;4904418;29;19919;-77
2023/04/17 05:42:03;;;;;;;;;;;;;;;12.28;59.83;100585.38;4916608;29;19915;-78
2023/04/17 05:44:47;;;;;;;;;;;;;;;12.26;59.50;100590.34;4917309;29;19915;-78
2023/04/17 05:47:31;;;;;;;;;;;;;;;12.17;58.52;100595.88;4918431;29;20295;-78
2023/04/17 05:50:16;;;;;;;;;;;;;;;12.13;58.29;100585.94;4920406;29;19919;-77
2023/04/17 05:53:01;;;;;;;;;;;;;;;12.17;59.00;100595.06;4913753;29;19934;-78
2023/04/17 05:55:49;;;;;;;;;;;;;;;12.37;59.12;100599.75;4913377;29;19915;-78
2023/04/17 05:58:34;;;;;;;;;;;;;;;12.44;58.29;100600.06;4917098;29;19915;-77
2023/04/17 06:01:21;;;;;;;;;;;;;;;12.68;58.83;100602.94;4929979;28;19919;-78
2023/04/17 06:04:09;;;;;;;;;;;;;;;12.99;57.92;100596.28;4897624;29;20387;-77
2023/04/17 06:06:53;;;;;;;;;;;;;;;12.96;57.62;100603.19;4917795;29;19915;-79
2023/04/17 06:09:39;;;;;;;;;;;;;;;12.70;57.50;100605.31;4922199;28;19919;-77
2023/04/17 06:12:24;;;;;;;;;;;;;;;12.83;56.96;100599.63;4923397;29;19914;-77
2023/04/17 06:15:10;;;;;;;;;;;;;;;12.86;57.44;100620.78;4934042;29;19919;-79
2023/04/17 06:17:55;;;;;;;;;;;;;;;12.56;58.18;100608.31;4917745;29;19915;-78
2023/04/17 06:20:40;;;;;;;;;;;;;;;12.83;56.85;100617.91;4918578;29;19926;-78
2023/04/17 06:23:25;;;;;;;;;;;;;;;12.96;57.02;100616.03;4912381;29;19915;-78
2023/04/17 06:26:11;;;;;;;;;;;;;;;13.03;56.83;100621.78;4907289;29;19915;-78
2023/04/17 06:28:55;;;;;;;;;;;;;;;12.92;57.17;100623.31;4916092;29;19923;-78
2023/04/17 06:31:41;;;;;;;;;;;;;;;12.87;57.77;100629.75;4920893;29;19915;-78
2023/04/17 06:34:26;;;;;;;;;;;;;;;13.01;57.21;100624.81;4918221;29;19915;-78
2023/04/17 06:37:12;;;;;;;;;;;;;;;13.23;56.10;100631.91;4919919;29;19915;-78
2023/04/17 06:39:57;;;;;;;;;;;;;;;13.28;56.14;100626.25;4909485;29;19915;-78
2023/04/17 06:42:42;;;;;;;;;;;;;;;13.41;55.94;100629.84;4931492;29;19915;-77
2023/04/17 06:45:33;;;;;;;;;;;;;;;13.37;57.03;100631.63;4918576;29;19919;-77
2023/04/17 06:48:17;;;;;;;;;;;;;;;13.23;57.90;100634.63;4908599;29;19915;-77
2023/04/17 06:51:02;;;;;;;;;;;;;;;13.57;57.32;100647.97;4909680;29;19918;-78
2023/04/17 06:53:47;;;;;;;;;;;;;;;13.40;57.49;100642.69;4916600;29;19919;-78
2023/04/17 06:56:31;;;;;;;;;;;;;;;13.75;56.79;100645.06;4915958;29;19915;-78
2023/04/17 06:59:16;;;;;;;;;;;;;;;14.08;56.51;100641.13;4908996;29;20379;-78
2023/04/17 07:02:01;;;;;;;;;;;;;;;14.36;55.69;100644.03;4915677;29;19919;-77
2023/04/17 07:04:46;;;;;;;;;;;;;;;14.58;54.95;100650.97;4933154;29;19919;-78
2023/04/17 07:07:32;;;;;;;;;;;;;;;15.01;53.25;100641.31;4916813;29;19923;-78
2023/04/17 07:10:18;;;;;;;;;;;;;;;15.44;51.13;100651.56;4915389;29;20395;-77
2023/04/17 07:13:02;;;;;;;;;;;;;;;15.70;50.18;100652.69;4900843;29;20330;-78
2023/04/17 07:15:52;;;;;;;;;;;;;;;15.85;49.58;100650.38;4920058;29;19915;-78
2023/04/17 07:18:36;;;;;;;;;;;;;;;15.90;48.14;100652.84;4908668;29;19915;-78
2023/04/17 07:21:21;;;;;;;;;;;;;;;15.77;48.83;100657.59;4922708;29;19919;-78
2023/04/17 07:24:05;;;;;;;;;;;;;;;15.76;48.84;100642.28;4918547;29;20096;-78
2023/04/17 07:26:49;;;;;;;;;;;;;;;15.77;48.83;100649.38;4917159;29;20413;-78
2023/04/17 07:29:34;;;;;;;;;;;;;;;15.90;48.31;100652.84;4919329;29;19919;-78
2023/04/17 07:32:23;;;;;;;;;;;;;;;16.00;47.88;100644.88;4920981;29;20001;-78
2023/04/17 07:35:08;;;;;;;;;;;;;;;16.18;47.40;100651.59;4922640;29;19915;-78
2023/04/17 07:37:52;;;;;;;;;;;;;;;16.08;48.16;100654.88;4921586;29;19915;-78
2023/04/17 07:40:37;;;;;;;;;;;;;;;15.97;47.77;100658.50;4908522;29;20323;-78
2023/04/17 07:43:21;;;;;;;;;;;;;;;16.13;46.71;100657.38;4916358;29;19919;-79
2023/04/17 07:46:05;;;;;;;;;;;;;;;15.98;46.98;100660.91;4929033;29;19915;-78
2023/04/17 07:48:49;;;;;;;;;;;;;;;16.09;47.07;100667.47;4921242;29;19922;-79
2023/04/17 07:51:34;;;;;;;;;;;;;;;16.54;43.30;100664.25;4924338;29;19926;-79
2023/04/17 07:54:19;;;;;;;;;;;;;;;16.80;42.20;100673.88;4918901;29;20386;-79
2023/04/17 07:57:03;;;;;;;;;;;;;;;17.24;41.43;100671.69;4918099;29;19915;-78
2023/04/17 07:59:48;;;;;;;;;;;;;;;17.64;38.95;100676.84;4919258;29;19915;-79
2023/04/17 08:02:32;;;;;;;;;;;;;;;18.27;38.13;100677.22;4921612;29;19915;-78
2023/04/17 08:05:17;;;;;;;;;;;;;;;18.92;35.97;100685.34;4924360;29;20387;-78
2023/04/17 08:08:01;;;;;;;;;;;;;;;20.42;34.19;100684.72;4920350;29;19915;-78
2023/04/17 08:10:45;;;;;;;;;;;;;;;21.29;32.53;100691.22;4934122;29;19923;-78
2023/04/17 08:13:33;;;;;;;;;;;;;;;24.32;27.53;100701.56;4921166;29;20383;-78
2023/04/17 08:16:18;;;;;;;;;;;;;;;26.00;24.03;100710.50;4908779;29;19915;-78
2023/04/17 08:19:02;;;;;;;;;;;;;;;24.13;24.64;100710.41;4926879;29;20286;-80
2023/04/17 08:21:47;;;;;;;;;;;;;;;24.59;25.23;100712.84;4922537;29;19914;-80
2023/04/17 08:24:31;;;;;;;;;;;;;;;23.98;26.50;100706.94;4908502;29;19918;-80
2023/04/17 08:27:16;;;;;;;;;;;;;;;22.01;26.58;100703.34;4917960;29;20371;-82
2023/04/17 08:30:01;;;;;;;;;;;;;;;20.92;29.16;100705.22;4917566;29;19919;-82
2023/04/17 08:32:49;;;;;;;;;;;;;;;20.77;29.21;100705.53;4911119;29;19919;-81
2023/04/17 08:35:34;;;;;;;;;;;;;;;20.87;29.12;100711.13;4916599;29;19915;-82
2023/04/17 08:38:18;;;;;;;;;;;;;;;21.10;28.89;100710.06;4917892;29;19915;-82
2023/04/17 08:41:06;;;;;;;;;;;;;;;20.95;28.46;100711.16;4908248;29;19915;-81
2023/04/17 08:43:52;;;;;;;;;;;;;;;19.40;31.21;100716.72;4919134;29;20430;-81
2023/04/17 08:46:37;;;;;;;;;;;;;;;19.24;30.63;100719.66;4905291;29;19915;-79
2023/04/17 08:49:22;;;;;;;;;;;;;;;18.18;32.64;100706.97;4917113;29;19927;-79
2023/04/17 08:52:08;;;;;;;;;;;;;;;18.29;32.18;100710.66;4916836;29;19915;-80
2023/04/17 08:54:53;;;;;;;;;;;;;;;17.75;32.00;100710.88;4905639;29;19919;-81
2023/04/17 08:57:54;;;;;;;;;;;;;;;17.13;33.87;100712.69;4925926;28;19915;-81
2023/04/17 09:00:40;;;;;;;;;;;;;;;17.45;34.25;100716.13;4920788;29;19919;-81
2023/04/17 09:03:37;;;;;;;;;;;;;;;17.16;33.59;100709.25;4916262;29;19915;-81
2023/04/17 09:06:22;;;;;;;;;;;;;;;17.21;33.86;100708.16;4919212;29;20379;-81
2023/04/17 09:09:06;;;;;;;;;;;;;;;16.94;34.87;100712.66;4897738;29;19915;-81
2023/04/17 09:12:10;;;;;;;;;;;;;;;17.00;34.95;100720.28;4902336;29;19915;-81
2023/04/17 09:14:54;;;;;;;;;;;;;;;16.79;36.28;100716.22;4892431;29;19915;-81
2023/04/17 09:17:39;;;;;;;;;;;;;;;16.81;36.86;100709.22;4904534;29;19915;-81
2023/04/17 09:20:24;;;;;;;;;;;;;;;16.53;36.48;100709.31;4907726;29;19915;-81
2023/04/17 09:23:08;;;;;;;;;;;;;;;16.74;36.74;100700.81;4917194;29;19915;-81
2023/04/17 09:26:12;;;;;;;;;;;;;;;16.78;37.00;100704.44;4913803;29;19915;-81
2023/04/17 09:29:09;;;;;;;;;;;;;;;16.63;36.24;100705.25;4906865;29;19915;-80
2023/04/17 09:31:53;;;;;;;;;;;;;;;16.54;36.21;100696.38;4904412;29;19918;-81
2023/04/17 09:34:41;;;;;;;;;;;;;;;16.60;36.80;100695.00;4917859;29;19918;-81
2023/04/17 09:37:26;;;;;;;;;;;;;;;16.55;35.49;100695.25;4908114;29;19915;-79
2023/04/17 09:40:10;;;;;;;;;;;;;;;16.48;35.88;100692.31;4904380;29;19915;-80
2023/04/17 09:42:56;;;;;;;;;;;;;;;16.33;35.99;100693.13;4902937;29;19914;-80
2023/04/17 09:45:43;;;;;;;;;;;;;;;16.30;36.22;100693.84;4910548;29;20406;-81
2023/04/17 09:48:28;;;;;;;;;;;;;;;16.02;37.93;100693.88;4916848;29;20379;-81
2023/04/17 09:51:12;;;;;;;;;;;;;;;16.26;38.12;100694.53;4919993;29;19918;-80
2023/04/17 09:53:58;;;;;;;;;;;;;;;16.24;39.54;100690.56;4917077;29;19915;-81
2023/04/17 09:56:42;;;;;;;;;;;;;;;16.30;38.45;100686.41;4907231;29;19915;-81
2023/04/17 09:59:27;;;;;;;;;;;;;;;16.46;37.17;100678.13;4919840;29;19915;-81
2023/04/17 10:02:13;;;;;;;;;;;;;;;16.99;36.32;100685.69;4908320;29;19915;-81
2023/04/17 10:04:58;;;;;;;;;;;;;;;17.24;34.78;100686.25;4910518;29;19923;-80
2023/04/17 10:07:43;;;;;;;;;;;;;;;18.01;34.04;100688.16;4916673;29;19928;-81
2023/04/17 10:10:29;;;;;;;;;;;;;;;18.63;32.08;100687.69;4899648;29;19920;-81
2023/04/17 10:13:14;;;;;;;;;;;;;;;18.64;31.33;100686.50;4912071;29;19914;-80
2023/04/17 10:15:59;;;;;;;;;;;;;;;19.09;31.28;100684.81;4902334;29;19919;-78
2023/04/17 10:18:46;;;;;;;;;;;;;;;18.85;30.32;100688.78;4922285;29;19915;-78
2023/04/17 10:21:38;;;;;;;;;;;;;;;19.37;29.41;100687.91;4912230;29;19919;-78
2023/04/17 10:24:29;;;;;;;;;;;;;;;25.18;21.99;100682.88;4918495;29;19919;-78
2023/04/17 10:27:30;;;;;;;;;;;;;;;29.74;17.63;100685.78;4905549;29;20318;-79
2023/04/17 10:30:25;;;;;;;;;;;;;;;32.08;15.15;100688.78;4924418;29;20299;-79
2023/04/17 10:33:18;;;;;;;;;;;;;;;33.10;13.93;100694.94;4910853;29;19916;-79
2023/04/17 10:36:28;;;;;;;;;;;;;;;37.67;10.43;100699.25;4914472;29;20363;-79
2023/04/17 10:39:19;;;;;;;;;;;;;;;36.39;11.14;100699.81;4923249;29;19919;-79
2023/04/17 10:42:19;;;;;;;;;;;;;;;39.99;9.33;100690.56;4921371;29;19915;-81
2023/04/17 10:45:17;;;;;;;;;;;;;;;42.21;7.47;100697.06;4902050;29;20291;-80
2023/04/17 10:48:06;;;;;;;;;;;;;;;41.89;7.73;100702.59;4909598;29;19915;-81
2023/04/17 10:50:58;;;;;;;;;;;;;;;39.98;8.15;100694.69;4903259;29;19923;-81
2023/04/17 10:53:50;;;;;;;;;;;;;;;40.10;8.49;100696.25;4916612;29;19927;-82
2023/04/17 10:56:46;;;;;;;;;;;;;;;40.95;7.93;100684.78;4906081;29;19915;-82
2023/04/17 10:59:38;;;;;;;;;;;;;;;43.26;6.67;100691.31;4903864;29;19915;-81
2023/04/17 11:02:37;;;;;;;;;;;;;;;42.53;7.13;100695.13;4913813;29;19918;-81
2023/04/17 11:05:29;;;;;;;;;;;;;;;34.09;12.21;100664.88;4916371;29;20294;-81
2023/04/17 11:08:21;;;;;;;;;;;;;;;30.19;15.35;100663.13;4883700;29;19916;-81
2023/04/17 11:11:16;;;;;;;;;;;;;;;30.56;14.65;100665.13;4898230;29;19919;-81
2023/04/17 11:14:15;;;;;;;;;;;;;;;35.85;10.83;100664.50;4918201;29;19919;-81
2023/04/17 11:17:10;;;;;;;;;;;;;;;36.82;10.71;100664.06;4902560;29;19919;-82
2023/04/17 11:20:02;;;;;;;;;;;;;;;41.12;7.99;100673.31;4903501;29;19915;-82
2023/04/17 11:22:55;;;;;;;;;;;;;;;41.70;7.97;100665.34;4903363;29;19915;-81
2023/04/17 11:25:47;;;;;;;;;;;;;;;37.47;10.58;100653.13;4912873;29;19919;-82
2023/04/17 11:28:39;;;;;;;;;;;;;;;29.44;16.94;100633.06;4929682;29;19915;-82
2023/04/17 11:31:27;;;;;;;;;;;;;;;28.13;18.41;100637.41;4907940;29;19938;-81
2023/04/17 11:34:17;;;;;;;;;;;;;;;27.73;19.02;100635.97;4904922;29;19919;-80
2023/04/17 11:37:09;;;;;;;;;;;;;;;24.64;22.12;100624.22;4919384;29;20326;-80
2023/04/17 11:40:03;;;;;;;;;;;;;;;23.80;24.08;100634.03;4908071;29;19919;-81
2023/04/17 11:42:55;;;;;;;;;;;;;;;22.90;24.72;100629.31;4921011;29;19914;-80
2023/04/17 11:45:47;;;;;;;;;;;;;;;23.24;24.09;100637.88;4918237;29;19919;-80
2023/04/17 11:48:39;;;;;;;;;;;;;;;23.34;24.30;100634.28;4902679;29;19916;-79
2023/04/17 11:51:30;;;;;;;;;;;;;;;22.75;24.56;100619.44;4919620;29;19919;-80
2023/04/17 11:54:26;;;;;;;;;;;;;;;21.84;25.87;100637.63;4917815;29;19923;-80
2023/04/17 11:57:18;;;;;;;;;;;;;;;22.15;25.27;100632.13;4926480;29;20382;-80
2023/04/17 12:00:14;;;;;;;;;;;;;;;22.30;25.33;100634.94;4932115;29;19915;-79
2023/04/17 12:03:23;;;;;;;;;;;;;;;21.31;26.93;100630.78;4921347;29;19915;-80
2023/04/17 12:06:15;;;;;;;;;;;;;;;20.41;28.06;100627.09;4904661;29;19915;-80
2023/04/17 12:09:07;;;;;;;;;;;;;;;20.15;29.05;100633.56;4924324;28;19919;-80
2023/04/17 12:11:59;;;;;;;;;;;;;;;20.51;29.26;100631.13;4936295;28;19919;-79
2023/04/17 12:14:49;;;;;;;;;;;;;;;20.13;29.52;100635.91;4905335;29;19919;-79
2023/04/17 12:17:38;;;;;;;;;;;;;;;20.35;29.48;100634.16;4917348;29;20394;-80
2023/04/17 12:20:30;;;;;;;;;;;;;;;20.40;29.01;100637.34;4923166;29;19915;-81
2023/04/17 12:23:22;;;;;;;;;;;;;;;20.62;28.95;100629.22;4908652;29;19915;-80
2023/04/17 12:26:14;;;;;;;;;;;;;;;20.53;28.62;100643.34;4921316;29;20310;-80
2023/04/17 12:29:06;;;;;;;;;;;;;;;20.16;29.40;100629.66;4918403;29;19915;-79
2023/04/17 12:31:58;;;;;;;;;;;;;;;20.28;29.35;100625.78;4907503;29;19919;-80
2023/04/17 12:34:50;;;;;;;;;;;;;;;21.23;27.86;100622.84;4919292;29;19919;-79
2023/04/17 12:37:43;;;;;;;;;;;;;;;20.37;28.68;100621.53;4907762;29;19930;-79
2023/04/17 12:40:32;;;;;;;;;;;;;;;20.76;28.41;100615.47;4923670;29;19915;-80
2023/04/17 12:43:24;;;;;;;;;;;;;;;21.39;27.00;100617.75;4909123;29;19915;-80
2023/04/17 12:46:16;;;;;;;;;;;;;;;21.04;27.93;100612.84;4919926;29;19915;-80
2023/04/17 12:49:08;;;;;;;;;;;;;;;21.54;26.19;100618.56;4909142;29;19923;-81
2023/04/17 12:52:00;;;;;;;;;;;;;;;22.08;25.67;100612.75;4902342;29;19918;-80
2023/04/17 12:54:53;;;;;;;;;;;;;;;22.39;25.95;100613.13;4916039;29;20375;-80
2023/04/17 12:57:44;;;;;;;;;;;;;;;20.96;27.91;100614.00;4914671;29;19916;-81
2023/04/17 13:00:37;;;;;;;;;;;;;;;21.11;28.26;100607.34;4916236;29;19915;-79
2023/04/17 13:03:27;;;;;;;;;;;;;;;20.75;27.77;100605.59;4914822;29;19978;-79
2023/04/17 13:06:19;;;;;;;;;;;;;;;20.83;27.46;100607.22;4914798;29;20240;-81
2023/04/17 13:09:11;;;;;;;;;;;;;;;20.41;28.04;100603.03;4915812;29;19915;-81
2023/04/17 13:12:03;;;;;;;;;;;;;;;20.93;26.95;100600.94;4924231;29;19919;-79
2023/04/17 13:14:55;;;;;;;;;;;;;;;21.23;26.86;100601.50;4906160;29;19915;-81
2023/04/17 13:17:45;;;;;;;;;;;;;;;22.08;25.36;100589.81;4923169;29;19915;-80
2023/04/17 13:20:37;;;;;;;;;;;;;;;23.10;23.79;100597.13;4917853;29;19915;-79
2023/04/17 13:23:29;;;;;;;;;;;;;;;22.33;24.32;100587.81;4907564;29;19919;-79
2023/04/17 13:26:19;;;;;;;;;;;;;;;22.08;25.21;100582.28;4918728;29;20290;-80
2023/04/17 13:29:11;;;;;;;;;;;;;;;21.92;25.42;100584.63;4916650;29;19915;-80
2023/04/17 13:32:03;;;;;;;;;;;;;;;22.65;24.63;100582.22;4917927;29;19919;-77
2023/04/17 13:34:55;;;;;;;;;;;;;;;22.16;25.78;100585.84;4922564;29;19927;-81
2023/04/17 13:37:47;;;;;;;;;;;;;;;22.18;25.33;100587.03;4898988;29;20064;-81
2023/04/17 13:40:37;;;;;;;;;;;;;;;23.69;23.80;100578.56;4908988;29;19915;-81
2023/04/17 13:43:29;;;;;;;;;;;;;;;24.94;21.75;100572.66;4916366;29;19915;-80
2023/04/17 13:46:21;;;;;;;;;;;;;;;24.78;21.59;100564.09;4914369;29;19915;-80
2023/04/17 13:49:13;;;;;;;;;;;;;;;24.74;21.53;100564.09;4921728;29;19915;-80